Rock Springs, WY

12:32 AM MDT on October 01, 2014 (GMT -0600)
Rock Springs-Sweetwater | Change Station
CLOSE
Current Station
Airport
Location: Rock Springs,
Elevation: 6759 ft
Nearby Weather Stations

Elev 6759 ft 41.59 °N, 109.05 °W | Updated 38 minutes ago

Mostly Cloudy
Mostly Cloudy
41 °F
Feels Like 32 °F
N
20
Wind Variable Wind from West

Today
High -- | Low -- °F
--% Chance of Precip.
Yesterday
High -- | Low -- °F
Precip. -- in
7:12 AM 6:57 PM
Waxing Crescent, 44% visible
Pressure 29.88 in
Visibility 10.0 miles
Clouds Few 4800 ft
Mostly Cloudy 6000 ft
Windchill 32 °F
Dew Point 37 °F
Humidity 86%
Rainfall 0.02 in
Snow Depth Not available.
UV 0 out of 12
Pollen 4.40 out of 12
Air Quality Not available.
Flu Activity Not available.
METAR KRKS 010554Z AUTO 26017KT 10SM FEW048 BKN060 05/03 A2997 RMK AO2 SLP116 60002 T00500028 10100 20044 50000

More Conditions Fewer Conditions

Pressure 29.88 in
Visibility 10.0 miles
Clouds Few 4800 ft
Mostly Cloudy 6000 ft
Windchill 32 °F
Dew Point 37 °F
Humidity 86%
Rainfall 0.02 in
Snow Depth Not available.
UV 0 out of 12
Pollen 4.40 out of 12
Air Quality Not available.
Flu Activity Not available.
METAR KRKS 010554Z AUTO 26017KT 10SM FEW048 BKN060 05/03 A2997 RMK AO2 SLP116 60002 T00500028 10100 20044 50000

More Conditions Fewer Conditions

10-Day Weather Forecast

Almanac

Astronomy

Oct. 01, 2014 Rise Set
Actual Time 7:12 AM MDT 6:57 PM MDT
Civil Twilight 6:44 AM MDT 7:25 PM MDT
Nautical Twilight 6:12 AM MDT 7:57 PM MDT
Astronomical Twilight 5:40 AM MDT 8:29 PM MDT
Moon 2:19 PM MDT No Moon Set
Length of Visible Light 12h 40m
Length of Day
11h 44m
Tomorrow will be 2m 46s shorter.
Waxing Crescent, 44% of the Moon is Illuminated
Today
Waxing Crescent
Oct 1
First Quarter
Oct 8
Full
Oct 15
Last Quarter
Oct 23
New

Community

WunderPhotos

Upload Photos

1,757,886 photos uploaded!

Nearby

Snow Depth

Station Depth Elevation
Whiskey Park 0 in 8950 ft
Bear Trap Meadow 0 in 8200 ft
Hams Fork 0 in 7840 ft
East Rim Divide 0 in 7930 ft
Gunsight Pass 0 in 9820 ft

Earthquake Activity

City Distance Mag. Time & Date
No recent earthquake activity has been reported nearby.
Minimum magnitude displayed is 2.5.

Coastal Water Temperatures

Place Temperature
No Stations Reporting

Nearby Weather Stations